Race Coverage Navigation

TS # 16 / Pagosa Springs, CO  2019

 


TS STATS
TS Distance 54.31 
Total Distance 982.72 
Miles To Go 2087.56 
TS Climbing 933 
Total Climbing
TS  Elevation
TS  Net Elevation 1467 
Map Filename Open Map 
Directions Filename  
Latitude 37.25 
Longitude -107.08 
Google Map  TimeStation Map 


TS Arrival Data
Arr Ord  #/Name Arrival DT TS Dst Avg This TS Avg Overall
 1 377 - Christoph Strasser  06/13/2019 23:06 54.31  13.03  18.05 
 2 279 - Marko Baloh  06/14/2019 9:26 54.31  8.74  15.17 
 3 609 - Jakob Olsen  06/14/2019 11:11 54.31  11.05  14.7 
 4 288 - Dave Haase  06/14/2019 12:27 54.31  13.09  14.49 
 5 617 - SOLO.kiwi (Craig Harper)  06/14/2019 13:07 54.31  10.25  14.27 
 6 529 - Isa Pulver  06/14/2019 13:36 54.31  13.14  14.14 
 7 349 - Mark Pattinson  06/14/2019 13:48 54.31  14.11  14.2 
 8 612 - Markus K. Brandl  06/14/2019 14:36 54.31  6.08  13.98 
 9 329 - Peter Oyler  06/14/2019 17:17 54.31  13.14  13.52 
 10 603 - Alan Bradley  06/14/2019 19:09 54.31  12.83  13.14 
 11 416 - Leah Goldstein  06/14/2019 20:40 54.31  14.81  12.83 
 12 623 - Ultra Paka Racing Team (Daniel Polman)  06/14/2019 20:41 54.31  12.25  12.84 
 13 622 - Thomas Odom-Team Kyle Pease Foundation  06/14/2019 21:15 54.31  7.07  12.75 
 14 615 - Philipp Amhof  06/14/2019 21:47 54.31  16.71  12.67 
 15 604 - Chieko Ozawa  06/14/2019 23:05 54.31  11.35  12.43 
 16 442 - Joe Barr  06/14/2019 23:06 54.31  6.33  12.51 
 17 568 - Alexandra Meixner  06/15/2019 0:51 54.31  8.03  12.16 
 18 559 - Team Martin RAAM 2019 (Martin Bergmeister)  06/15/2019 2:55 54.31  11.24  11.91 
 19 411 - Geoff Brunner  06/15/2019 3:09 54.31  10.09  11.9 
 20 367 - Daniela Genovesi  06/15/2019 3:32 54.31  6.98  11.78 
 21 161 - Seana Hogan  06/15/2019 4:29 54.31  10.72  11.65 
 22 510 - John C. Tarlton  06/15/2019 6:33 54.31  7.24  11.42 
 23 611 - Marcelo Soares " MIXIRICA "  06/15/2019 6:46 54.31  10.93  11.37 
 24 610 - Kabir Rachure  06/15/2019 8:27 54.31  6.75  11.15 
 25 399 - Valerio Zamboni  06/15/2019 11:56 54.31  6.99  10.76 
 26 618 - GREGORY ROBINSON  06/15/2019 12:04 54.31  3.82  10.7 
 27 539 - Kari Rouvinen  06/15/2019 12:07 54.31  4.43  10.72 
 28 424 - Team i RON man Veterans supporting Veterans  06/15/2019 13:11 54.31  6.39  10.61 
 29 608 - Elin Starup  06/15/2019 15:37 54.31  6.76  10.28 
 30 527 - TALABARDON (Herve Talabardon)  06/15/2019 18:22 54.31  6.79  10.04 
 31 607 - Sabine Bird (Team Bean)  06/15/2019 19:02 54.31  6.82  9.93 
 32 605 - Christian Echavarria  06/15/2019 20:43 54.31  8.01  9.79 
 33 T411 - team alpha - tischlerei groemmer  06/17/2019 11:39 54.31  21.87  22.18 
 34 T800 - Backstedt Racing Project 14  06/17/2019 12:19 54.31  26.07  21.92 
 35 T401 - Data Techniques powered by Networks Centre  06/17/2019 13:37 54.31  20.89  21.16 
 36 T404 - Gentlemen of speed  06/17/2019 14:40 54.31  20.89  20.72 
 37 T201 - EAT WELL  06/17/2019 16:18 54.31  21.72  19.94 
 38 T805 - Team Oceanside  06/17/2019 17:18 54.31  20.24  19.76 
 39 T407 - Julian Becker   06/17/2019 17:20 54.31  21.3  19.63 
 40 T807 - Team ZOE International  06/17/2019 17:58 54.31  20.11  19.51 
 41 T412 - Team Aspect  06/17/2019 18:15 54.31  18.1  19.31 
 42 T802 - Scorchers  06/17/2019 19:18 54.31  15.97  18.98 
 43 T416 - Team Rotary Raams Polio  06/17/2019 19:57 54.31  18.31  18.71 
 44 T406 - Operation Walk Midwest  06/17/2019 20:41 54.31  18.2  18.4 
 45 T400 - Cantastic4  06/17/2019 20:43 54.31  18.51  18.35 
 46 T808 - Antonia's Friends 2019  06/17/2019 20:51 54.31  18  18.46 
 47 T804 - Team FSHD Skyland Trail  06/17/2019 20:55 54.31  16.97  18.41 
 48 T408 - Radeln-fuer-Kinder (Cycling-for-Kids)  06/17/2019 21:07 54.31  15.37  18.26 
 49 T418 - The Opportunists  06/17/2019 22:23 54.31  18.95  17.89 
 50 T202 - Integra Medical - BAA Racing  06/17/2019 23:47 54.31  15.52  17.32 
 51 T403 - EKJ Denmark  06/17/2019 23:57 54.31  14.74  17.32 
 52 T410 - Soap-Aid  06/18/2019 0:16 54.31  16.63  17.26 
 53 T414 - Brazil Nuts  06/18/2019 0:21 54.31  15.97  17.26 
 54 T803 - Team EndoPark  06/18/2019 0:58 54.31  14.68  17.11 
 55 T206 - Project Linear Acceleration  06/18/2019 1:40 54.31  14.88  16.78 
 56 T405 - High Rollers  06/18/2019 1:44 54.31  14.17  16.8 
 57 T415 - TEAM FIRE VELO 935  06/18/2019 2:07 54.31  15.16  16.74 
 58 T204 - Lucan CRC  06/18/2019 2:49 54.31  15.09  16.45 
 59 T413 - TEAM BRASIL - SKIPPER  06/18/2019 4:51 54.31  13.69  15.99 
 60 T402 - EA/WFP RAAM Team  06/18/2019 5:44 54.31  12.78  15.72 
 61 T806 - Team SuperMarrow  06/18/2019 6:24 54.31  10.97  15.64 
 62 T801 - Mind Over Matter  06/18/2019 6:50 54.31  15.02  15.52 
 63 T417 - Team4RAAM 2019 powered by TGW Living Logistics  06/18/2019 8:34 54.31  8.55  15.09 
 64 T208 - Team Machine  06/18/2019 8:58 54.31  11.01  14.93 
 65 T200 - AIR RELAX GoPro TEAM BRASIL  06/18/2019 11:02 54.31  8.9  14.44 
 66 T207 - Team Life Time  06/18/2019 11:19 54.31  14.29  14.41 
 67 T205 - Prevent Breast Cancer powered by Endomag  06/18/2019 11:31 54.31  12.25  14.36 
 68 T409 - Serpentine Golden Girls  06/18/2019 12:55 54.31  14.42  14.12 
 69 T203 - JPsDuo  06/18/2019 13:32 54.31  10.55  13.94 
 70 T210 - Bike Wine Team  06/18/2019 16:09 54.31  11.85  13.46